sensor_id;sensor_type;location;lat;lon;timestamp;temperature;humidity
14893;DHT22;7538;53.626;9.906;2023-10-13T00:01:09;13.80;99.90
14893;DHT22;7538;53.626;9.906;2023-10-13T00:03:39;13.90;99.90
14893;DHT22;7538;53.626;9.906;2023-10-13T00:06:06;13.80;99.90
14893;DHT22;7538;53.626;9.906;2023-10-13T00:08:34;13.70;99.90
14893;DHT22;7538;53.626;9.906;2023-10-13T00:11:02;13.80;99.90
14893;DHT22;7538;53.626;9.906;2023-10-13T00:13:30;13.90;99.90
14893;DHT22;7538;53.626;9.906;2023-10-13T00:16:06;13.90;99.90
14893;DHT22;7538;53.626;9.906;2023-10-13T00:18:35;13.90;99.90
14893;DHT22;7538;53.626;9.906;2023-10-13T00:21:09;13.80;99.90
14893;DHT22;7538;53.626;9.906;2023-10-13T00:23:39;13.80;99.90
14893;DHT22;7538;53.626;9.906;2023-10-13T00:26:09;13.90;99.90
14893;DHT22;7538;53.626;9.906;2023-10-13T00:28:36;13.80;99.90
14893;DHT22;7538;53.626;9.906;2023-10-13T00:31:11;13.70;99.90
14893;DHT22;7538;53.626;9.906;2023-10-13T00:33:39;13.70;99.90
14893;DHT22;7538;53.626;9.906;2023-10-13T00:36:09;13.70;99.90
14893;DHT22;7538;53.626;9.906;2023-10-13T00:38:42;13.70;99.90
14893;DHT22;7538;53.626;9.906;2023-10-13T00:41:14;13.70;99.90
14893;DHT22;7538;53.626;9.906;2023-10-13T00:43:46;13.80;99.90
14893;DHT22;7538;53.626;9.906;2023-10-13T00:46:31;13.70;99.90
14893;DHT22;7538;53.626;9.906;2023-10-13T00:48:59;13.70;99.90
14893;DHT22;7538;53.626;9.906;2023-10-13T00:51:28;13.70;99.90
14893;DHT22;7538;53.626;9.906;2023-10-13T00:54:03;13.80;99.90
14893;DHT22;7538;53.626;9.906;2023-10-13T00:56:33;13.80;99.90
14893;DHT22;7538;53.626;9.906;2023-10-13T00:59:06;13.80;99.90
14893;DHT22;7538;53.626;9.906;2023-10-13T01:01:35;13.90;99.90
14893;DHT22;7538;53.626;9.906;2023-10-13T01:04:02;13.90;99.90
14893;DHT22;7538;53.626;9.906;2023-10-13T01:06:30;14.00;99.90
14893;DHT22;7538;53.626;9.906;2023-10-13T01:08:58;14.00;99.90
14893;DHT22;7538;53.626;9.906;2023-10-13T01:11:38;14.20;99.90
14893;DHT22;7538;53.626;9.906;2023-10-13T01:14:05;14.10;99.90
14893;DHT22;7538;53.626;9.906;2023-10-13T01:16:31;14.10;99.90
14893;DHT22;7538;53.626;9.906;2023-10-13T01:18:59;14.10;99.90
14893;DHT22;7538;53.626;9.906;2023-10-13T01:21:26;14.10;99.90
14893;DHT22;7538;53.626;9.906;2023-10-13T01:23:56;14.10;99.90
14893;DHT22;7538;53.626;9.906;2023-10-13T01:26:22;14.20;99.90
14893;DHT22;7538;53.626;9.906;2023-10-13T01:28:50;14.10;99.90
14893;DHT22;7538;53.626;9.906;2023-10-13T01:31:17;14.10;99.90
14893;DHT22;7538;53.626;9.906;2023-10-13T01:33:53;11.10;99.90
14893;DHT22;7538;53.626;9.906;2023-10-13T01:36:20;14.10;99.90
14893;DHT22;7538;53.626;9.906;2023-10-13T01:38:48;14.20;99.90
14893;DHT22;7538;53.626;9.906;2023-10-13T01:41:17;14.50;99.90
14893;DHT22;7538;53.626;9.906;2023-10-13T01:43:44;14.30;99.90
14893;DHT22;7538;53.626;9.906;2023-10-13T01:46:11;14.30;99.90
14893;DHT22;7538;53.626;9.906;2023-10-13T01:48:39;14.30;99.90
14893;DHT22;7538;53.626;9.906;2023-10-13T01:51:05;14.30;99.90
14893;DHT22;7538;53.626;9.906;2023-10-13T01:53:36;14.30;99.90
14893;DHT22;7538;53.626;9.906;2023-10-13T01:56:02;14.30;99.90
14893;DHT22;7538;53.626;9.906;2023-10-13T01:58:37;14.30;99.90
14893;DHT22;7538;53.626;9.906;2023-10-13T02:01:07;14.30;99.90
14893;DHT22;7538;53.626;9.906;2023-10-13T02:03:34;14.30;99.90
14893;DHT22;7538;53.626;9.906;2023-10-13T02:06:01;14.30;99.90
14893;DHT22;7538;53.626;9.906;2023-10-13T02:08:30;14.50;99.90
14893;DHT22;7538;53.626;9.906;2023-10-13T02:10:57;14.50;99.90
14893;DHT22;7538;53.626;9.906;2023-10-13T02:13:26;14.40;99.90
14893;DHT22;7538;53.626;9.906;2023-10-13T02:15:55;14.40;99.90
14893;DHT22;7538;53.626;9.906;2023-10-13T02:18:23;14.40;99.90
14893;DHT22;7538;53.626;9.906;2023-10-13T02:20:52;14.30;99.90
14893;DHT22;7538;53.626;9.906;2023-10-13T02:23:22;14.40;99.90
14893;DHT22;7538;53.626;9.906;2023-10-13T02:25:48;14.30;99.90
14893;DHT22;7538;53.626;9.906;2023-10-13T02:28:18;14.40;99.90
14893;DHT22;7538;53.626;9.906;2023-10-13T02:30:47;14.30;99.90
14893;DHT22;7538;53.626;9.906;2023-10-13T02:33:17;14.30;99.90
14893;DHT22;7538;53.626;9.906;2023-10-13T02:35:47;14.30;99.90
14893;DHT22;7538;53.626;9.906;2023-10-13T02:38:20;14.30;99.90
14893;DHT22;7538;53.626;9.906;2023-10-13T02:40:58;14.30;99.90
14893;DHT22;7538;53.626;9.906;2023-10-13T02:43:34;14.30;99.90
14893;DHT22;7538;53.626;9.906;2023-10-13T02:46:00;14.30;99.90
14893;DHT22;7538;53.626;9.906;2023-10-13T02:48:29;14.40;99.90
14893;DHT22;7538;53.626;9.906;2023-10-13T02:51:06;14.50;99.90
14893;DHT22;7538;53.626;9.906;2023-10-13T02:53:41;14.40;99.90
14893;DHT22;7538;53.626;9.906;2023-10-13T02:56:12;14.50;99.90
14893;DHT22;7538;53.626;9.906;2023-10-13T02:58:40;14.50;99.90
14893;DHT22;7538;53.626;9.906;2023-10-13T03:01:09;14.50;99.90
14893;DHT22;7538;53.626;9.906;2023-10-13T03:03:49;14.50;99.90
14893;DHT22;7538;53.626;9.906;2023-10-13T03:06:20;14.50;99.90
14893;DHT22;7538;53.626;9.906;2023-10-13T03:08:49;14.60;99.90
14893;DHT22;7538;53.626;9.906;2023-10-13T03:11:16;14.60;99.90
14893;DHT22;7538;53.626;9.906;2023-10-13T03:13:47;14.70;99.90
14893;DHT22;7538;53.626;9.906;2023-10-13T03:16:16;14.70;99.90
14893;DHT22;7538;53.626;9.906;2023-10-13T03:18:43;12.70;99.90
14893;DHT22;7538;53.626;9.906;2023-10-13T03:21:21;14.70;99.90
14893;DHT22;7538;53.626;9.906;2023-10-13T03:23:57;14.70;99.90
14893;DHT22;7538;53.626;9.906;2023-10-13T03:26:29;14.70;99.90
14893;DHT22;7538;53.626;9.906;2023-10-13T03:29:00;14.70;99.90
14893;DHT22;7538;53.626;9.906;2023-10-13T03:31:30;14.70;99.90
14893;DHT22;7538;53.626;9.906;2023-10-13T03:34:03;14.80;99.90
14893;DHT22;7538;53.626;9.906;2023-10-13T03:36:37;14.70;99.90
14893;DHT22;7538;53.626;9.906;2023-10-13T03:39:23;14.80;99.90
14893;DHT22;7538;53.626;9.906;2023-10-13T03:41:55;14.80;99.90
14893;DHT22;7538;53.626;9.906;2023-10-13T03:44:22;14.80;99.90
14893;DHT22;7538;53.626;9.906;2023-10-13T03:46:49;14.70;99.90
14893;DHT22;7538;53.626;9.906;2023-10-13T03:49:19;14.80;99.90
14893;DHT22;7538;53.626;9.906;2023-10-13T03:51:49;14.80;99.90
14893;DHT22;7538;53.626;9.906;2023-10-13T03:54:19;14.80;99.90
14893;DHT22;7538;53.626;9.906;2023-10-13T03:56:46;14.90;99.90
14893;DHT22;7538;53.626;9.906;2023-10-13T03:59:18;14.90;99.90
14893;DHT22;7538;53.626;9.906;2023-10-13T04:01:45;14.90;99.90
14893;DHT22;7538;53.626;9.906;2023-10-13T04:04:19;14.80;99.90
14893;DHT22;7538;53.626;9.906;2023-10-13T04:07:01;14.90;99.90
14893;DHT22;7538;53.626;9.906;2023-10-13T04:09:46;14.90;99.90
14893;DHT22;7538;53.626;9.906;2023-10-13T04:12:30;15.00;99.90
14893;DHT22;7538;53.626;9.906;2023-10-13T04:15:15;14.90;99.90
14893;DHT22;7538;53.626;9.906;2023-10-13T04:17:46;15.00;99.90
14893;DHT22;7538;53.626;9.906;2023-10-13T04:20:14;15.00;99.90
14893;DHT22;7538;53.626;9.906;2023-10-13T04:22:54;15.10;99.90
14893;DHT22;7538;53.626;9.906;2023-10-13T04:25:36;15.40;99.90
14893;DHT22;7538;53.626;9.906;2023-10-13T04:28:17;15.10;99.90
14893;DHT22;7538;53.626;9.906;2023-10-13T04:31:00;15.10;99.90
14893;DHT22;7538;53.626;9.906;2023-10-13T04:33:37;15.10;99.90
14893;DHT22;7538;53.626;9.906;2023-10-13T04:36:17;15.20;99.90
14893;DHT22;7538;53.626;9.906;2023-10-13T04:38:51;16.60;99.90
14893;DHT22;7538;53.626;9.906;2023-10-13T04:41:26;15.20;99.90
14893;DHT22;7538;53.626;9.906;2023-10-13T04:43:57;15.20;99.90
14893;DHT22;7538;53.626;9.906;2023-10-13T04:46:30;15.30;99.90
14893;DHT22;7538;53.626;9.906;2023-10-13T04:49:20;15.30;99.90
14893;DHT22;7538;53.626;9.906;2023-10-13T04:52:02;15.50;99.90
14893;DHT22;7538;53.626;9.906;2023-10-13T04:54:40;15.40;99.90
14893;DHT22;7538;53.626;9.906;2023-10-13T04:57:16;15.50;99.90
14893;DHT22;7538;53.626;9.906;2023-10-13T04:59:51;15.50;99.90
14893;DHT22;7538;53.626;9.906;2023-10-13T05:02:37;15.50;99.90
14893;DHT22;7538;53.626;9.906;2023-10-13T05:05:49;15.50;99.90
14893;DHT22;7538;53.626;9.906;2023-10-13T05:08:33;15.70;99.90
14893;DHT22;7538;53.626;9.906;2023-10-13T05:11:18;15.70;99.90
14893;DHT22;7538;53.626;9.906;2023-10-13T05:14:03;15.80;99.90
14893;DHT22;7538;53.626;9.906;2023-10-13T05:16:48;15.80;99.90
14893;DHT22;7538;53.626;9.906;2023-10-13T05:19:32;15.90;99.90
14893;DHT22;7538;53.626;9.906;2023-10-13T05:22:16;16.20;99.90
14893;DHT22;7538;53.626;9.906;2023-10-13T05:25:00;16.10;99.90
14893;DHT22;7538;53.626;9.906;2023-10-13T05:27:46;16.10;99.90
14893;DHT22;7538;53.626;9.906;2023-10-13T05:30:31;16.10;99.90
14893;DHT22;7538;53.626;9.906;2023-10-13T05:33:16;16.20;99.90
14893;DHT22;7538;53.626;9.906;2023-10-13T05:36:00;16.20;99.90
14893;DHT22;7538;53.626;9.906;2023-10-13T05:38:44;16.40;99.90
14893;DHT22;7538;53.626;9.906;2023-10-13T05:41:28;16.30;99.90
14893;DHT22;7538;53.626;9.906;2023-10-13T05:44:14;16.40;99.90
14893;DHT22;7538;53.626;9.906;2023-10-13T05:46:58;16.40;99.90
14893;DHT22;7538;53.626;9.906;2023-10-13T05:49:48;16.40;99.90
14893;DHT22;7538;53.626;9.906;2023-10-13T05:52:18;16.40;99.90
14893;DHT22;7538;53.626;9.906;2023-10-13T05:55:05;16.50;99.90
14893;DHT22;7538;53.626;9.906;2023-10-13T05:57:50;16.50;99.90
14893;DHT22;7538;53.626;9.906;2023-10-13T06:00:40;16.60;99.90
14893;DHT22;7538;53.626;9.906;2023-10-13T06:03:25;16.60;99.90
14893;DHT22;7538;53.626;9.906;2023-10-13T06:06:09;16.60;99.90
14893;DHT22;7538;53.626;9.906;2023-10-13T06:08:53;16.60;99.90
14893;DHT22;7538;53.626;9.906;2023-10-13T06:11:37;16.60;99.90
14893;DHT22;7538;53.626;9.906;2023-10-13T06:14:22;16.70;99.90
14893;DHT22;7538;53.626;9.906;2023-10-13T06:17:07;16.70;99.90
14893;DHT22;7538;53.626;9.906;2023-10-13T06:19:52;16.80;99.90
14893;DHT22;7538;53.626;9.906;2023-10-13T06:22:36;16.80;99.90
14893;DHT22;7538;53.626;9.906;2023-10-13T06:25:20;16.70;99.90
14893;DHT22;7538;53.626;9.906;2023-10-13T06:28:04;17.00;99.90
14893;DHT22;7538;53.626;9.906;2023-10-13T06:30:59;16.80;99.90
14893;DHT22;7538;53.626;9.906;2023-10-13T06:33:28;16.80;99.90
14893;DHT22;7538;53.626;9.906;2023-10-13T06:35:56;17.00;99.90
14893;DHT22;7538;53.626;9.906;2023-10-13T06:38:23;16.80;99.90
14893;DHT22;7538;53.626;9.906;2023-10-13T06:40:52;16.90;99.90
14893;DHT22;7538;53.626;9.906;2023-10-13T06:43:19;17.00;99.90
14893;DHT22;7538;53.626;9.906;2023-10-13T06:45:49;17.00;99.90
14893;DHT22;7538;53.626;9.906;2023-10-13T06:48:26;16.90;99.90
14893;DHT22;7538;53.626;9.906;2023-10-13T06:50:54;16.90;99.90
14893;DHT22;7538;53.626;9.906;2023-10-13T06:53:21;17.10;99.90
14893;DHT22;7538;53.626;9.906;2023-10-13T06:55:49;16.90;99.90
14893;DHT22;7538;53.626;9.906;2023-10-13T06:58:18;16.90;99.90
14893;DHT22;7538;53.626;9.906;2023-10-13T07:00:49;17.00;99.90
14893;DHT22;7538;53.626;9.906;2023-10-13T07:03:21;17.00;99.90
14893;DHT22;7538;53.626;9.906;2023-10-13T07:05:48;16.90;99.90
14893;DHT22;7538;53.626;9.906;2023-10-13T07:08:16;17.10;99.90
14893;DHT22;7538;53.626;9.906;2023-10-13T07:10:49;16.90;99.90
14893;DHT22;7538;53.626;9.906;2023-10-13T07:16:25;17.20;99.90
14893;DHT22;7538;53.626;9.906;2023-10-13T07:19:00;17.20;99.90
14893;DHT22;7538;53.626;9.906;2023-10-13T07:21:31;17.20;99.90
14893;DHT22;7538;53.626;9.906;2023-10-13T07:23:59;13.60;99.90
14893;DHT22;7538;53.626;9.906;2023-10-13T07:26:36;17.00;99.90
14893;DHT22;7538;53.626;9.906;2023-10-13T07:29:08;17.00;99.90
14893;DHT22;7538;53.626;9.906;2023-10-13T07:31:35;17.00;99.90
14893;DHT22;7538;53.626;9.906;2023-10-13T07:34:03;16.90;99.90
14893;DHT22;7538;53.626;9.906;2023-10-13T07:36:39;15.70;99.90
14893;DHT22;7538;53.626;9.906;2023-10-13T07:39:10;17.10;99.90
14893;DHT22;7538;53.626;9.906;2023-10-13T07:41:47;17.00;99.90
14893;DHT22;7538;53.626;9.906;2023-10-13T07:44:17;17.00;99.90
14893;DHT22;7538;53.626;9.906;2023-10-13T07:46:45;17.00;99.90
14893;DHT22;7538;53.626;9.906;2023-10-13T07:49:23;17.10;99.90
14893;DHT22;7538;53.626;9.906;2023-10-13T07:51:51;17.00;99.90
14893;DHT22;7538;53.626;9.906;2023-10-13T07:54:24;17.00;99.90
14893;DHT22;7538;53.626;9.906;2023-10-13T07:56:50;17.00;99.90
14893;DHT22;7538;53.626;9.906;2023-10-13T07:59:20;17.00;99.90
14893;DHT22;7538;53.626;9.906;2023-10-13T08:01:49;16.90;99.90
14893;DHT22;7538;53.626;9.906;2023-10-13T08:04:37;16.90;99.90
14893;DHT22;7538;53.626;9.906;2023-10-13T08:07:04;17.20;99.90
14893;DHT22;7538;53.626;9.906;2023-10-13T08:09:40;16.90;99.90
14893;DHT22;7538;53.626;9.906;2023-10-13T08:12:09;16.90;99.90
14893;DHT22;7538;53.626;9.906;2023-10-13T08:14:37;17.00;99.90
14893;DHT22;7538;53.626;9.906;2023-10-13T08:17:07;16.80;99.90
14893;DHT22;7538;53.626;9.906;2023-10-13T08:19:35;16.90;99.90
14893;DHT22;7538;53.626;9.906;2023-10-13T08:22:10;16.90;99.90
14893;DHT22;7538;53.626;9.906;2023-10-13T08:24:56;16.90;99.90
14893;DHT22;7538;53.626;9.906;2023-10-13T08:27:40;17.00;99.90
14893;DHT22;7538;53.626;9.906;2023-10-13T08:30:31;16.90;99.90
14893;DHT22;7538;53.626;9.906;2023-10-13T08:33:08;16.90;99.90
14893;DHT22;7538;53.626;9.906;2023-10-13T08:35:43;16.90;99.90
14893;DHT22;7538;53.626;9.906;2023-10-13T08:38:31;16.90;99.90
14893;DHT22;7538;53.626;9.906;2023-10-13T08:41:17;17.00;99.90
14893;DHT22;7538;53.626;9.906;2023-10-13T08:44:05;17.00;99.90
14893;DHT22;7538;53.626;9.906;2023-10-13T08:46:34;16.90;99.90
14893;DHT22;7538;53.626;9.906;2023-10-13T08:49:27;16.80;99.90
14893;DHT22;7538;53.626;9.906;2023-10-13T08:51:55;16.90;99.90
14893;DHT22;7538;53.626;9.906;2023-10-13T08:54:33;16.80;99.90
14893;DHT22;7538;53.626;9.906;2023-10-13T08:57:05;16.80;99.90
14893;DHT22;7538;53.626;9.906;2023-10-13T08:59:46;16.80;99.90
14893;DHT22;7538;53.626;9.906;2023-10-13T09:02:21;16.80;99.90
14893;DHT22;7538;53.626;9.906;2023-10-13T09:04:49;16.80;99.90
14893;DHT22;7538;53.626;9.906;2023-10-13T09:07:25;16.80;99.90
14893;DHT22;7538;53.626;9.906;2023-10-13T09:09:51;16.80;99.90
14893;DHT22;7538;53.626;9.906;2023-10-13T09:12:59;16.80;99.90
14893;DHT22;7538;53.626;9.906;2023-10-13T09:15:29;17.00;99.90
14893;DHT22;7538;53.626;9.906;2023-10-13T09:18:10;17.80;99.90
14893;DHT22;7538;53.626;9.906;2023-10-13T09:20:40;16.90;99.90
14893;DHT22;7538;53.626;9.906;2023-10-13T09:23:09;17.00;99.90
14893;DHT22;7538;53.626;9.906;2023-10-13T09:25:40;17.00;99.90
14893;DHT22;7538;53.626;9.906;2023-10-13T09:28:21;17.40;99.90
14893;DHT22;7538;53.626;9.906;2023-10-13T09:30:53;17.20;99.90
14893;DHT22;7538;53.626;9.906;2023-10-13T09:33:20;17.30;99.90
14893;DHT22;7538;53.626;9.906;2023-10-13T09:35:54;17.30;99.90
14893;DHT22;7538;53.626;9.906;2023-10-13T09:38:20;17.40;99.90
14893;DHT22;7538;53.626;9.906;2023-10-13T09:40:47;17.50;99.90
14893;DHT22;7538;53.626;9.906;2023-10-13T09:43:16;17.50;99.90
14893;DHT22;7538;53.626;9.906;2023-10-13T09:45:46;17.60;99.90
14893;DHT22;7538;53.626;9.906;2023-10-13T09:48:31;17.60;99.90
14893;DHT22;7538;53.626;9.906;2023-10-13T09:51:00;17.70;99.90
14893;DHT22;7538;53.626;9.906;2023-10-13T09:53:29;17.70;99.90
14893;DHT22;7538;53.626;9.906;2023-10-13T09:56:02;17.80;99.90
14893;DHT22;7538;53.626;9.906;2023-10-13T09:58:42;17.70;99.90
14893;DHT22;7538;53.626;9.906;2023-10-13T10:01:18;17.70;99.90
14893;DHT22;7538;53.626;9.906;2023-10-13T10:03:47;17.60;99.90
14893;DHT22;7538;53.626;9.906;2023-10-13T10:06:22;17.60;99.90
14893;DHT22;7538;53.626;9.906;2023-10-13T10:09:04;17.70;99.90
14893;DHT22;7538;53.626;9.906;2023-10-13T10:11:58;17.70;99.90
14893;DHT22;7538;53.626;9.906;2023-10-13T10:14:41;17.80;99.90
14893;DHT22;7538;53.626;9.906;2023-10-13T10:17:11;17.80;99.90
14893;DHT22;7538;53.626;9.906;2023-10-13T10:19:47;17.80;99.90
14893;DHT22;7538;53.626;9.906;2023-10-13T10:22:24;17.90;99.90
14893;DHT22;7538;53.626;9.906;2023-10-13T10:24:56;17.70;99.90
14893;DHT22;7538;53.626;9.906;2023-10-13T10:27:25;19.60;99.90
14893;DHT22;7538;53.626;9.906;2023-10-13T10:33:02;16.70;99.90
14893;DHT22;7538;53.626;9.906;2023-10-13T10:35:37;19.20;99.90
14893;DHT22;7538;53.626;9.906;2023-10-13T10:38:08;17.90;99.90
14893;DHT22;7538;53.626;9.906;2023-10-13T10:40:54;18.00;99.90
14893;DHT22;7538;53.626;9.906;2023-10-13T10:43:25;18.10;99.90
14893;DHT22;7538;53.626;9.906;2023-10-13T10:45:54;18.10;99.90
14893;DHT22;7538;53.626;9.906;2023-10-13T10:48:27;18.10;99.90
14893;DHT22;7538;53.626;9.906;2023-10-13T10:51:00;18.30;99.90
14893;DHT22;7538;53.626;9.906;2023-10-13T10:53:33;18.40;99.90
14893;DHT22;7538;53.626;9.906;2023-10-13T10:56:10;18.40;99.90
14893;DHT22;7538;53.626;9.906;2023-10-13T10:58:46;18.50;99.90
14893;DHT22;7538;53.626;9.906;2023-10-13T11:01:14;18.60;99.90
14893;DHT22;7538;53.626;9.906;2023-10-13T11:03:58;18.70;99.90
14893;DHT22;7538;53.626;9.906;2023-10-13T11:06:34;18.70;99.90
14893;DHT22;7538;53.626;9.906;2023-10-13T11:09:07;18.80;99.90
14893;DHT22;7538;53.626;9.906;2023-10-13T11:11:45;18.80;99.90
14893;DHT22;7538;53.626;9.906;2023-10-13T11:14:20;18.80;99.90
14893;DHT22;7538;53.626;9.906;2023-10-13T11:16:49;18.90;99.90
14893;DHT22;7538;53.626;9.906;2023-10-13T11:19:21;19.00;99.90
14893;DHT22;7538;53.626;9.906;2023-10-13T11:21:52;19.00;99.90
14893;DHT22;7538;53.626;9.906;2023-10-13T11:24:19;19.10;99.90
14893;DHT22;7538;53.626;9.906;2023-10-13T11:26:47;19.10;99.90
14893;DHT22;7538;53.626;9.906;2023-10-13T11:29:18;18.10;99.90
14893;DHT22;7538;53.626;9.906;2023-10-13T11:31:48;19.20;99.90
14893;DHT22;7538;53.626;9.906;2023-10-13T11:34:25;19.20;99.90
14893;DHT22;7538;53.626;9.906;2023-10-13T11:37:01;19.20;99.90
14893;DHT22;7538;53.626;9.906;2023-10-13T11:39:49;19.20;99.90
14893;DHT22;7538;53.626;9.906;2023-10-13T11:42:17;19.20;99.90
14893;DHT22;7538;53.626;9.906;2023-10-13T11:44:44;19.30;99.90
14893;DHT22;7538;53.626;9.906;2023-10-13T11:47:10;19.40;99.90
14893;DHT22;7538;53.626;9.906;2023-10-13T11:49:57;19.50;99.90
14893;DHT22;7538;53.626;9.906;2023-10-13T11:52:25;19.50;99.90
14893;DHT22;7538;53.626;9.906;2023-10-13T11:54:54;19.60;99.90
14893;DHT22;7538;53.626;9.906;2023-10-13T11:57:21;19.60;99.90
14893;DHT22;7538;53.626;9.906;2023-10-13T11:59:48;19.70;99.90
14893;DHT22;7538;53.626;9.906;2023-10-13T12:02:44;19.80;99.90
14893;DHT22;7538;53.626;9.906;2023-10-13T12:05:31;19.90;99.90
14893;DHT22;7538;53.626;9.906;2023-10-13T12:08:14;19.90;99.90
14893;DHT22;7538;53.626;9.906;2023-10-13T12:10:47;20.10;99.90
14893;DHT22;7538;53.626;9.906;2023-10-13T12:13:25;20.20;99.90
14893;DHT22;7538;53.626;9.906;2023-10-13T12:15:52;20.30;99.90
14893;DHT22;7538;53.626;9.906;2023-10-13T12:18:22;20.40;99.90
14893;DHT22;7538;53.626;9.906;2023-10-13T12:20:50;20.40;99.90
14893;DHT22;7538;53.626;9.906;2023-10-13T12:23:17;20.40;99.90
14893;DHT22;7538;53.626;9.906;2023-10-13T12:25:46;20.50;99.90
14893;DHT22;7538;53.626;9.906;2023-10-13T12:28:25;20.50;99.90
14893;DHT22;7538;53.626;9.906;2023-10-13T12:30:54;20.50;99.90
14893;DHT22;7538;53.626;9.906;2023-10-13T12:33:24;21.50;99.90
14893;DHT22;7538;53.626;9.906;2023-10-13T12:39:15;20.80;99.90
14893;DHT22;7538;53.626;9.906;2023-10-13T12:41:59;20.70;99.90
14893;DHT22;7538;53.626;9.906;2023-10-13T12:44:43;20.80;99.90
14893;DHT22;7538;53.626;9.906;2023-10-13T12:47:27;20.80;99.90
14893;DHT22;7538;53.626;9.906;2023-10-13T12:50:12;20.80;99.90
14893;DHT22;7538;53.626;9.906;2023-10-13T12:52:51;20.90;99.90
14893;DHT22;7538;53.626;9.906;2023-10-13T12:55:20;20.90;99.90
14893;DHT22;7538;53.626;9.906;2023-10-13T12:57:50;20.90;99.90
14893;DHT22;7538;53.626;9.906;2023-10-13T13:00:17;21.00;99.90
14893;DHT22;7538;53.626;9.906;2023-10-13T13:02:51;21.00;99.90
14893;DHT22;7538;53.626;9.906;2023-10-13T13:05:21;21.00;99.90
14893;DHT22;7538;53.626;9.906;2023-10-13T13:07:54;21.10;99.90
14893;DHT22;7538;53.626;9.906;2023-10-13T13:10:22;21.10;99.90
14893;DHT22;7538;53.626;9.906;2023-10-13T13:13:06;21.30;99.90
14893;DHT22;7538;53.626;9.906;2023-10-13T13:15:33;21.30;99.90
14893;DHT22;7538;53.626;9.906;2023-10-13T13:17:59;21.30;99.90
14893;DHT22;7538;53.626;9.906;2023-10-13T13:20:36;21.40;99.90
14893;DHT22;7538;53.626;9.906;2023-10-13T13:23:05;21.40;99.90
14893;DHT22;7538;53.626;9.906;2023-10-13T13:25:34;21.30;99.90
14893;DHT22;7538;53.626;9.906;2023-10-13T13:28:08;21.40;99.90
14893;DHT22;7538;53.626;9.906;2023-10-13T13:30:36;21.40;99.90
14893;DHT22;7538;53.626;9.906;2023-10-13T13:33:03;21.40;99.90
14893;DHT22;7538;53.626;9.906;2023-10-13T13:35:36;21.40;99.90
14893;DHT22;7538;53.626;9.906;2023-10-13T13:38:03;21.50;99.90
14893;DHT22;7538;53.626;9.906;2023-10-13T13:40:38;21.60;99.90
14893;DHT22;7538;53.626;9.906;2023-10-13T13:43:05;21.70;99.90
14893;DHT22;7538;53.626;9.906;2023-10-13T13:45:33;21.70;99.90
14893;DHT22;7538;53.626;9.906;2023-10-13T13:48:00;21.70;99.90
14893;DHT22;7538;53.626;9.906;2023-10-13T13:50:33;21.70;99.90
14893;DHT22;7538;53.626;9.906;2023-10-13T13:53:06;21.70;99.90
14893;DHT22;7538;53.626;9.906;2023-10-13T13:55:35;21.70;99.90
14893;DHT22;7538;53.626;9.906;2023-10-13T13:58:06;21.70;99.90
14893;DHT22;7538;53.626;9.906;2023-10-13T14:00:36;21.60;99.90
14893;DHT22;7538;53.626;9.906;2023-10-13T14:03:04;21.60;99.90
14893;DHT22;7538;53.626;9.906;2023-10-13T14:05:31;21.60;99.90
14893;DHT22;7538;53.626;9.906;2023-10-13T14:07:57;21.60;99.90
14893;DHT22;7538;53.626;9.906;2023-10-13T14:10:24;21.60;99.90
14893;DHT22;7538;53.626;9.906;2023-10-13T14:13:21;21.50;99.90
14893;DHT22;7538;53.626;9.906;2023-10-13T14:16:07;21.50;99.90
14893;DHT22;7538;53.626;9.906;2023-10-13T14:18:41;21.40;99.90
14893;DHT22;7538;53.626;9.906;2023-10-13T14:21:08;21.30;99.90
14893;DHT22;7538;53.626;9.906;2023-10-13T14:23:35;21.20;99.90
14893;DHT22;7538;53.626;9.906;2023-10-13T14:26:04;21.20;99.90
14893;DHT22;7538;53.626;9.906;2023-10-13T14:28:36;21.20;99.90
14893;DHT22;7538;53.626;9.906;2023-10-13T14:31:04;21.20;99.90
14893;DHT22;7538;53.626;9.906;2023-10-13T14:33:35;21.20;99.90
14893;DHT22;7538;53.626;9.906;2023-10-13T14:36:02;21.10;99.90
14893;DHT22;7538;53.626;9.906;2023-10-13T14:38:30;21.10;99.90
14893;DHT22;7538;53.626;9.906;2023-10-13T14:40:57;21.20;99.90
14893;DHT22;7538;53.626;9.906;2023-10-13T14:43:24;21.10;99.90
14893;DHT22;7538;53.626;9.906;2023-10-13T14:45:54;21.10;99.90
14893;DHT22;7538;53.626;9.906;2023-10-13T14:48:21;21.10;99.90
14893;DHT22;7538;53.626;9.906;2023-10-13T14:50:50;21.20;99.90
14893;DHT22;7538;53.626;9.906;2023-10-13T14:53:17;21.20;99.90
14893;DHT22;7538;53.626;9.906;2023-10-13T14:55:47;21.20;99.90
14893;DHT22;7538;53.626;9.906;2023-10-13T14:58:17;21.30;99.90
14893;DHT22;7538;53.626;9.906;2023-10-13T15:00:43;21.20;99.90
14893;DHT22;7538;53.626;9.906;2023-10-13T15:03:12;21.30;99.90
14893;DHT22;7538;53.626;9.906;2023-10-13T15:05:39;21.20;99.90
14893;DHT22;7538;53.626;9.906;2023-10-13T15:08:08;21.20;99.90
14893;DHT22;7538;53.626;9.906;2023-10-13T15:10:35;21.20;99.90
14893;DHT22;7538;53.626;9.906;2023-10-13T15:13:03;21.10;99.90
14893;DHT22;7538;53.626;9.906;2023-10-13T15:15:30;21.10;99.90
14893;DHT22;7538;53.626;9.906;2023-10-13T15:17:57;21.10;99.90
14893;DHT22;7538;53.626;9.906;2023-10-13T15:20:26;21.00;99.90
14893;DHT22;7538;53.626;9.906;2023-10-13T15:22:53;21.00;99.90
14893;DHT22;7538;53.626;9.906;2023-10-13T15:25:25;21.00;99.90
14893;DHT22;7538;53.626;9.906;2023-10-13T15:27:59;21.30;99.90
14893;DHT22;7538;53.626;9.906;2023-10-13T15:30:28;21.10;99.90
14893;DHT22;7538;53.626;9.906;2023-10-13T15:33:09;21.10;99.90
14893;DHT22;7538;53.626;9.906;2023-10-13T15:35:39;21.10;99.90
14893;DHT22;7538;53.626;9.906;2023-10-13T15:38:09;21.10;99.90
14893;DHT22;7538;53.626;9.906;2023-10-13T15:40:40;21.10;99.90
14893;DHT22;7538;53.626;9.906;2023-10-13T15:43:08;21.20;99.90
14893;DHT22;7538;53.626;9.906;2023-10-13T15:45:35;21.20;99.90
14893;DHT22;7538;53.626;9.906;2023-10-13T15:48:06;21.10;99.90
14893;DHT22;7538;53.626;9.906;2023-10-13T15:50:36;21.10;99.90
14893;DHT22;7538;53.626;9.906;2023-10-13T15:53:06;21.10;99.90
14893;DHT22;7538;53.626;9.906;2023-10-13T15:55:35;21.20;99.90
14893;DHT22;7538;53.626;9.906;2023-10-13T15:58:03;21.20;99.90
14893;DHT22;7538;53.626;9.906;2023-10-13T16:00:33;21.20;99.90
14893;DHT22;7538;53.626;9.906;2023-10-13T16:03:01;21.20;99.90
14893;DHT22;7538;53.626;9.906;2023-10-13T16:05:36;21.20;99.90
14893;DHT22;7538;53.626;9.906;2023-10-13T16:08:06;21.10;99.90
14893;DHT22;7538;53.626;9.906;2023-10-13T16:10:37;21.20;99.90
14893;DHT22;7538;53.626;9.906;2023-10-13T16:13:04;21.10;99.90
14893;DHT22;7538;53.626;9.906;2023-10-13T16:15:36;21.20;99.90
14893;DHT22;7538;53.626;9.906;2023-10-13T16:18:06;21.20;99.90
14893;DHT22;7538;53.626;9.906;2023-10-13T16:20:33;21.20;99.90
14893;DHT22;7538;53.626;9.906;2023-10-13T16:23:01;21.20;99.90
14893;DHT22;7538;53.626;9.906;2023-10-13T16:25:29;21.20;99.90
14893;DHT22;7538;53.626;9.906;2023-10-13T16:27:56;21.20;99.90
14893;DHT22;7538;53.626;9.906;2023-10-13T16:30:23;21.20;99.90
14893;DHT22;7538;53.626;9.906;2023-10-13T16:32:50;21.20;99.90